Time;durP1;ratioP1;P1;durP2;ratioP2;P2;SDS_P1;SDS_P2;PMS_P1;PMS_P2;Temp;Humidity;BMP_temperature;BMP_pressure;BME280_temperature;BME280_humidity;BME280_pressure;Samples;Min_cycle;Max_cycle;Signal;HPM_P1;HPM_P2
2022/01/16 00:05:43;;;;;;;46.17;18.77;;;;;;;0.48;100.00;100631.69;5116246;28;20059;-81
2022/01/16 00:08:28;;;;;;;38.85;15.80;;;;;;;0.38;100.00;100647.72;5101862;28;20348;-81
2022/01/16 00:11:12;;;;;;;33.90;15.43;;;;;;;0.39;100.00;100626.28;5117357;28;20114;-82
2022/01/16 00:13:57;;;;;;;37.72;17.65;;;;;;;0.39;100.00;100611.72;5117178;28;20097;-81
2022/01/16 00:16:41;;;;;;;37.05;16.58;;;;;;;0.42;100.00;100614.38;5101978;28;20114;-81
2022/01/16 00:19:25;;;;;;;39.50;15.55;;;;;;;0.44;100.00;100627.28;5101661;28;20344;-81
2022/01/16 00:22:14;;;;;;;34.65;16.83;;;;;;;0.38;100.00;100632.28;5116854;28;20046;-81
2022/01/16 00:25:02;;;;;;;38.35;18.40;;;;;;;0.33;100.00;100621.84;5084775;28;20055;-81
2022/01/16 00:27:47;;;;;;;40.72;17.08;;;;;;;0.27;100.00;100595.88;5087258;28;20036;-81
2022/01/16 00:30:32;;;;;;;42.05;18.20;;;;;;;0.41;100.00;100596.28;5101910;28;20044;-81
2022/01/16 00:33:17;;;;;;;36.90;18.40;;;;;;;0.34;100.00;100587.50;5116594;28;20040;-83
2022/01/16 00:36:02;;;;;;;39.28;16.85;;;;;;;0.35;100.00;100576.34;5130788;28;20050;-81
2022/01/16 00:38:47;;;;;;;34.38;16.77;;;;;;;0.33;100.00;100562.56;5101404;28;20040;-81
2022/01/16 00:41:34;;;;;;;37.58;16.83;;;;;;;0.29;100.00;100554.69;5087800;28;20052;-81
2022/01/16 00:44:18;;;;;;;37.70;17.83;;;;;;;0.28;100.00;100571.84;5101695;28;20063;-83
2022/01/16 00:47:03;;;;;;;46.38;20.08;;;;;;;0.37;100.00;100582.44;5115677;28;20043;-81
2022/01/16 00:49:48;;;;;;;41.38;18.60;;;;;;;0.37;100.00;100604.75;5101290;28;20409;-81
2022/01/16 00:52:32;;;;;;;37.55;15.65;;;;;;;0.30;100.00;100580.50;5130006;28;20051;-81
2022/01/16 00:55:16;;;;;;;40.45;17.88;;;;;;;0.29;100.00;100608.81;5101216;28;20036;-80
2022/01/16 00:58:01;;;;;;;39.05;14.88;;;;;;;0.29;100.00;100591.63;5101330;28;20036;-81
2022/01/16 01:00:44;;;;;;;38.25;15.60;;;;;;;0.30;100.00;100572.78;5116681;28;20097;-81
2022/01/16 01:03:30;;;;;;;36.05;14.52;;;;;;;0.30;100.00;100565.06;5101297;28;20043;-81
2022/01/16 01:06:14;;;;;;;39.25;16.15;;;;;;;0.25;100.00;100589.81;5116777;28;20073;-81
2022/01/16 01:08:59;;;;;;;37.60;16.25;;;;;;;0.27;100.00;100569.25;5101236;28;20047;-81
2022/01/16 01:11:45;;;;;;;31.55;14.43;;;;;;;0.29;100.00;100576.16;5116765;28;20044;-81
2022/01/16 01:14:40;;;;;;;33.25;14.52;;;;;;;0.29;100.00;100589.06;5116147;28;20050;-81
2022/01/16 01:17:24;;;;;;;33.17;14.02;;;;;;;0.33;100.00;100570.28;5084143;28;20359;-80
2022/01/16 01:20:12;;;;;;;29.70;13.02;;;;;;;0.27;100.00;100552.06;5103798;28;20074;-81
2022/01/16 01:22:56;;;;;;;36.40;15.80;;;;;;;0.30;100.00;100574.50;5101104;28;20088;-81
2022/01/16 01:25:44;;;;;;;36.20;15.48;;;;;;;0.22;100.00;100566.53;5115515;28;20040;-81
2022/01/16 01:28:29;;;;;;;38.13;15.95;;;;;;;0.12;100.00;100561.94;5101152;28;20370;-81
2022/01/16 01:31:13;;;;;;;41.08;17.17;;;;;;;0.04;100.00;100573.75;5086831;28;20064;-81
2022/01/16 01:33:58;;;;;;;41.58;17.25;;;;;;;0.14;100.00;100579.19;5116724;28;20058;-81
2022/01/16 01:36:48;;;;;;;40.38;16.90;;;;;;;0.08;100.00;100584.16;5086920;28;20040;-81
2022/01/16 01:39:32;;;;;;;43.38;18.38;;;;;;;0.13;100.00;100566.25;5116965;28;20043;-81
2022/01/16 01:42:17;;;;;;;34.15;14.88;;;;;;;0.15;100.00;100472.72;5119608;28;20088;-81
2022/01/16 01:51:10;;;;;;;32.92;14.68;;;;;;;0.19;100.00;100460.78;5104303;28;20428;-81
2022/01/16 01:53:56;;;;;;;36.20;15.02;;;;;;;0.21;100.00;100485.78;5104343;28;20048;-81
2022/01/16 01:56:41;;;;;;;43.13;15.60;;;;;;;0.21;100.00;100498.66;5104372;28;20118;-81
2022/01/16 01:59:28;;;;;;;54.65;17.42;;;;;;;0.15;100.00;100506.22;5121369;27;20049;-81
2022/01/16 02:02:12;;;;;;;42.17;15.02;;;;;;;0.10;100.00;100528.41;5104271;28;20067;-81
2022/01/16 02:04:56;;;;;;;45.70;16.27;;;;;;;0.07;100.00;100512.00;5089983;28;20036;-81
2022/01/16 02:07:40;;;;;;;43.90;16.45;;;;;;;0.09;100.00;100529.22;5089800;28;20036;-81
2022/01/16 02:10:25;;;;;;;46.70;17.08;;;;;;;0.07;100.00;100519.72;5103975;28;20393;-81
2022/01/16 02:13:21;;;;;;;50.80;14.13;;;;;;;0.08;100.00;100526.63;5119232;28;20040;-81
2022/01/16 02:31:21;;;;;;;47.92;14.98;;;;;;;-0.03;100.00;100496.28;5119326;28;20032;-81
2022/01/16 02:37:12;;;;;;;56.90;14.60;;;;;;;0.05;100.00;100531.69;5103554;28;20036;-81
2022/01/16 02:40:04;;;;;;;43.20;14.60;;;;;;;0.05;100.00;100514.53;5118632;28;20040;-81
2022/01/16 02:42:51;;;;;;;41.50;15.57;;;;;;;-0.01;100.00;100512.63;5118617;28;20432;-81
2022/01/16 02:45:37;;;;;;;37.50;14.27;;;;;;;-0.02;100.00;100504.88;5103380;28;20348;-81
2022/01/16 02:48:22;;;;;;;49.85;15.38;;;;;;;-0.02;100.00;100499.72;5103483;28;20044;-81
2022/01/16 02:51:06;;;;;;;66.72;16.00;;;;;;;-0.05;100.00;100492.78;5116898;28;20047;-81
2022/01/16 02:53:51;;;;;;;38.30;15.82;;;;;;;-0.02;100.00;100473.97;5097048;28;20135;-81
2022/01/16 02:56:38;;;;;;;54.85;16.05;;;;;;;-0.02;100.00;100484.28;5083290;28;20036;-81
2022/01/16 02:59:22;;;;;;;50.20;15.52;;;;;;;-0.11;100.00;100484.00;5082837;28;20134;-81
2022/01/16 03:02:07;;;;;;;66.13;15.82;;;;;;;-0.10;100.00;100481.50;5082976;28;20043;-81
2022/01/16 03:04:52;;;;;;;56.72;15.27;;;;;;;-0.15;100.00;100489.91;5083319;28;20321;-81
2022/01/16 03:07:37;;;;;;;63.33;16.60;;;;;;;-0.28;100.00;100484.38;5097552;28;20044;-81
2022/01/16 03:13:29;;;;;;;;;;;;;;;-0.36;100.00;100483.28;5097280;28;20047;-81
2022/01/16 03:16:18;;;;;;;46.33;12.32;;;;;;;-0.43;100.00;100471.06;5068467;28;19927;-81
2022/01/16 03:22:06;;;;;;;44.50;12.73;;;;;;;-0.58;100.00;100458.63;5097541;28;20424;-81
2022/01/16 03:24:51;;;;;;;31.02;11.40;;;;;;;-0.57;100.00;100454.34;5097370;28;20043;-81
2022/01/16 03:27:36;;;;;;;50.22;11.95;;;;;;;-0.64;100.00;100442.13;5082611;28;20048;-81
2022/01/16 03:30:20;;;;;;;84.65;12.40;;;;;;;-0.77;100.00;100440.88;5097157;28;20036;-81
2022/01/16 03:33:05;;;;;;;55.47;12.27;;;;;;;-1.02;100.00;100434.94;5096911;28;20337;-81
2022/01/16 03:35:51;;;;;;;82.15;14.02;;;;;;;-0.86;100.00;100426.03;5082626;28;20040;-81
2022/01/16 03:38:37;;;;;;;39.03;12.40;;;;;;;-0.83;100.00;100425.25;5097697;28;20040;-80
2022/01/16 03:41:22;;;;;;;29.63;10.50;;;;;;;-0.91;100.00;100417.31;5082131;28;20427;-81
2022/01/16 03:44:07;;;;;;;42.30;10.10;;;;;;;-0.90;100.00;100415.59;5075904;28;20068;-80
2022/01/16 03:46:52;;;;;;;21.90;9.27;;;;;;;-0.90;100.00;100411.34;5076058;28;20055;-81
2022/01/16 03:49:36;;;;;;;67.70;10.00;;;;;;;-0.90;100.00;100401.03;5083672;28;20057;-80
2022/01/16 03:52:21;;;;;;;45.20;9.65;;;;;;;-0.86;100.00;100405.44;5080221;28;20066;-81
2022/01/16 03:55:07;;;;;;;30.73;10.70;;;;;;;-0.91;100.00;100391.59;5081703;28;20336;-81
2022/01/16 03:57:52;;;;;;;74.95;11.40;;;;;;;-1.37;100.00;100395.25;5110328;28;20399;-80
2022/01/16 04:00:36;;;;;;;52.05;10.73;;;;;;;-1.14;100.00;100396.00;5082110;28;20044;-81
2022/01/16 04:03:21;;;;;;;38.20;10.05;;;;;;;-1.11;100.00;100383.22;5081332;28;20395;-81
2022/01/16 04:06:06;;;;;;;59.97;12.25;;;;;;;-1.07;100.00;100387.66;5081640;28;20352;-81
2022/01/16 04:08:53;;;;;;;41.90;10.00;;;;;;;-1.02;100.00;100386.09;5081601;28;20044;-80
2022/01/16 04:11:44;;;;;;;45.67;12.30;;;;;;;-1.07;100.00;100390.25;5081444;28;20086;-81
2022/01/16 04:17:31;;;;;;;27.05;9.70;;;;;;;-1.15;100.00;100378.84;5081451;28;20047;-80
2022/01/16 04:20:16;;;;;;;46.50;9.85;;;;;;;-1.07;100.00;100387.66;5081420;28;20436;-80
2022/01/16 04:23:03;;;;;;;54.10;11.40;;;;;;;-1.13;100.00;100363.47;5081569;28;20044;-81
2022/01/16 04:25:47;;;;;;;155.23;18.73;;;;;;;-1.00;100.00;100384.47;5081585;28;20043;-80
2022/01/16 04:28:31;;;;;;;72.93;15.80;;;;;;;-0.98;100.00;100387.06;5081603;28;20062;-80
2022/01/16 04:31:16;;;;;;;96.10;18.17;;;;;;;-1.00;100.00;100392.16;5067580;28;20482;-80
2022/01/16 04:34:00;;;;;;;52.53;18.33;;;;;;;-1.01;100.00;100381.81;5081742;28;20044;-80
2022/01/16 04:36:45;;;;;;;54.25;14.52;;;;;;;-1.00;100.00;100369.03;5067081;28;20040;-80
2022/01/16 04:39:35;;;;;;;73.32;17.85;;;;;;;-0.97;100.00;100365.69;5081400;28;20036;-80
2022/01/16 04:45:23;;;;;;;60.80;18.48;;;;;;;-0.96;100.00;100363.13;5081807;28;20055;-80
2022/01/16 04:48:08;;;;;;;106.47;22.45;;;;;;;-0.91;100.00;100365.88;5081247;28;20447;-80
2022/01/16 04:50:52;;;;;;;114.45;21.13;;;;;;;-0.98;100.00;100356.19;5109711;28;20437;-80
2022/01/16 04:53:37;;;;;;;79.50;22.08;;;;;;;-0.99;100.00;100357.03;5066794;28;20052;-80
2022/01/16 04:56:21;;;;;;;76.03;18.55;;;;;;;-1.10;100.00;100353.28;5096105;28;20123;-80
2022/01/16 04:59:06;;;;;;;64.25;16.00;;;;;;;-1.22;100.00;100344.34;5081050;28;20047;-81
2022/01/16 05:01:51;;;;;;;81.93;15.90;;;;;;;-1.36;100.00;100342.19;5096358;28;20044;-80
2022/01/16 05:04:35;;;;;;;90.22;16.85;;;;;;;-1.32;100.00;100334.63;5080950;28;20044;-80
2022/01/16 05:07:20;;;;;;;88.25;17.48;;;;;;;-1.48;100.00;100325.53;5067077;28;20040;-80
2022/01/16 05:10:06;;;;;;;89.30;16.30;;;;;;;-1.61;100.00;100325.13;5080951;28;20036;-80
2022/01/16 05:12:52;;;;;;;126.30;26.88;;;;;;;-1.64;100.00;100318.19;5096184;28;20063;-80
2022/01/16 05:18:41;;;;;;;114.63;31.67;;;;;;;-1.51;100.00;100307.47;5084779;28;20115;-80
2022/01/16 05:21:26;;;;;;;104.65;26.50;;;;;;;-1.55;100.00;100302.19;5084789;28;20040;-80
2022/01/16 05:24:11;;;;;;;93.32;21.10;;;;;;;-1.70;100.00;100300.88;5084768;28;20407;-80
2022/01/16 05:26:56;;;;;;;148.07;26.35;;;;;;;-1.85;100.00;100284.09;5084854;28;20036;-80
2022/01/16 05:29:40;;;;;;;59.90;18.50;;;;;;;-1.76;100.00;100277.53;5070704;28;20036;-80
2022/01/16 05:32:24;;;;;;;59.72;17.73;;;;;;;-1.72;100.00;100271.72;5099896;28;20040;-80
2022/01/16 05:35:09;;;;;;;65.05;19.83;;;;;;;-1.67;100.00;100276.97;5084454;28;20063;-80
2022/01/16 05:37:53;;;;;;;52.95;20.67;;;;;;;-1.71;100.00;100257.16;5099902;28;20040;-80
2022/01/16 05:40:38;;;;;;;75.75;19.45;;;;;;;-1.58;100.00;100258.41;5099730;28;20044;-80
2022/01/16 05:43:23;;;;;;;68.63;22.38;;;;;;;-1.68;100.00;100253.00;5084748;28;20048;-80
2022/01/16 05:46:07;;;;;;;168.13;24.83;;;;;;;-1.78;100.00;100247.53;5099329;28;20051;-80
2022/01/16 05:48:51;;;;;;;80.32;19.55;;;;;;;-1.99;100.00;100230.59;5095657;28;20113;-80
2022/01/16 05:51:36;;;;;;;60.50;19.27;;;;;;;-1.89;100.00;100237.75;5084123;28;20040;-80
2022/01/16 05:54:20;;;;;;;115.45;27.83;;;;;;;-1.91;100.00;100225.72;5099360;28;20428;-80
2022/01/16 05:57:05;;;;;;;94.63;25.23;;;;;;;-1.97;100.00;100228.97;5084460;28;20130;-80
2022/01/16 05:59:49;;;;;;;174.88;58.53;;;;;;;-1.91;100.00;100243.69;5095733;28;20121;-80
2022/01/16 06:02:34;;;;;;;188.50;41.05;;;;;;;-1.90;100.00;100243.72;5098992;28;20161;-80
2022/01/16 06:05:19;;;;;;;150.30;38.35;;;;;;;-1.95;100.00;100242.72;5098891;28;20042;-79
2022/01/16 06:08:09;;;;;;;120.63;32.28;;;;;;;-1.90;100.00;100240.28;5098932;28;20040;-80
2022/01/16 06:10:54;;;;;;;118.43;21.20;;;;;;;-1.95;100.00;100229.00;5098718;28;20040;-80
2022/01/16 06:13:38;;;;;;;82.03;22.33;;;;;;;-1.88;100.00;100236.97;5124918;27;20038;-79
2022/01/16 06:16:23;;;;;;;133.02;33.05;;;;;;;-1.86;100.00;100238.69;5137960;27;20039;-79
2022/01/16 06:19:07;;;;;;;118.22;32.38;;;;;;;-1.83;100.00;100233.66;5137768;27;20043;-79
2022/01/16 06:21:52;;;;;;;136.25;34.72;;;;;;;-1.93;100.00;100243.63;5108090;27;20104;-79
2022/01/16 06:24:36;;;;;;;97.70;31.15;;;;;;;-1.96;100.00;100225.56;5122348;27;20046;-78
2022/01/16 06:27:20;;;;;;;101.13;26.50;;;;;;;-1.98;100.00;100224.66;5107873;27;20092;-79
2022/01/16 06:30:06;;;;;;;48.97;18.95;;;;;;;-1.90;100.00;100222.31;5091219;27;20059;-79
2022/01/16 06:32:51;;;;;;;85.90;25.05;;;;;;;-1.91;100.00;100203.47;5124091;27;20039;-79
2022/01/16 06:35:36;;;;;;;59.28;17.95;;;;;;;-1.95;100.00;100198.19;5124172;27;20408;-79
2022/01/16 06:38:20;;;;;;;52.08;21.00;;;;;;;-1.90;100.00;100205.22;5122140;27;20364;-79
2022/01/16 06:41:05;;;;;;;81.95;23.77;;;;;;;-1.91;100.00;100216.31;5122145;27;20169;-79
2022/01/16 06:43:49;;;;;;;58.90;22.75;;;;;;;-1.82;100.00;100209.72;5137230;27;20047;-79
2022/01/16 06:46:33;;;;;;;54.35;19.92;;;;;;;-1.85;100.00;100197.66;5137130;27;20415;-79
2022/01/16 06:49:18;;;;;;;42.33;18.40;;;;;;;-1.96;100.00;100186.19;5121675;27;20495;-79
2022/01/16 06:52:02;;;;;;;44.33;19.30;;;;;;;-1.87;100.00;100183.91;5121903;27;20054;-79
2022/01/16 06:54:47;;;;;;;72.10;26.40;;;;;;;-1.76;100.00;100187.66;5123093;27;20035;-80
2022/01/16 06:57:31;;;;;;;89.70;30.08;;;;;;;-1.80;100.00;100187.53;5124057;27;20427;-79
2022/01/16 07:00:15;;;;;;;75.95;30.65;;;;;;;-1.70;100.00;100169.88;5139306;27;20092;-79
2022/01/16 07:03:00;;;;;;;73.60;31.25;;;;;;;-1.68;100.00;100168.22;5138624;27;20051;-79
2022/01/16 07:05:45;;;;;;;64.32;27.88;;;;;;;-1.65;100.00;100173.47;5109088;27;20442;-79
2022/01/16 07:08:30;;;;;;;145.18;61.83;;;;;;;-1.59;100.00;100170.19;5123394;27;20381;-80
2022/01/16 07:11:15;;;;;;;60.15;26.63;;;;;;;-1.57;100.00;100176.25;5138490;27;20343;-79
2022/01/16 07:13:59;;;;;;;69.95;28.95;;;;;;;-1.56;100.00;100172.88;5139061;27;20035;-80
2022/01/16 07:16:44;;;;;;;59.22;25.42;;;;;;;-1.51;100.00;100180.69;5120525;27;20077;-79
2022/01/16 07:19:29;;;;;;;73.55;33.58;;;;;;;-1.50;100.00;100175.59;5123175;27;20062;-79
2022/01/16 07:22:13;;;;;;;65.47;25.70;;;;;;;-1.56;100.00;100183.16;5123672;27;20047;-79
2022/01/16 07:24:58;;;;;;;57.03;25.52;;;;;;;-1.53;100.00;100183.19;5123266;27;20046;-80
2022/01/16 07:27:42;;;;;;;58.88;26.30;;;;;;;-1.56;100.00;100170.28;5138274;27;20372;-79
2022/01/16 07:30:28;;;;;;;59.95;26.85;;;;;;;-1.47;100.00;100172.25;5105885;27;20047;-79
2022/01/16 07:33:13;;;;;;;69.90;27.77;;;;;;;-1.40;100.00;100176.72;5123191;27;20043;-80
2022/01/16 07:35:57;;;;;;;78.90;28.20;;;;;;;-1.36;100.00;100175.16;5122984;27;20043;-79
2022/01/16 07:38:42;;;;;;;68.65;27.80;;;;;;;-1.37;100.00;100163.09;5122874;27;20046;-80
2022/01/16 07:41:26;;;;;;;59.22;26.58;;;;;;;-1.32;100.00;100164.13;5120066;27;20043;-80
2022/01/16 07:44:11;;;;;;;55.40;24.90;;;;;;;-1.23;100.00;100175.53;5138412;27;20046;-79
2022/01/16 07:46:55;;;;;;;68.15;25.85;;;;;;;-1.25;100.00;100177.16;5108423;27;20043;-80
2022/01/16 07:49:40;;;;;;;59.90;23.83;;;;;;;-1.26;100.00;100175.44;5108410;27;20035;-80
2022/01/16 07:52:24;;;;;;;61.35;23.58;;;;;;;-1.21;100.00;100165.28;5122665;27;20112;-80
2022/01/16 07:55:09;;;;;;;65.20;25.25;;;;;;;-1.21;100.00;100170.41;5108124;27;20436;-79
2022/01/16 07:57:55;;;;;;;62.25;25.55;;;;;;;-1.09;100.00;100175.03;5122932;27;20444;-79
2022/01/16 08:00:39;;;;;;;68.75;26.35;;;;;;;-1.03;100.00;100176.06;5122483;27;20043;-80
2022/01/16 08:03:24;;;;;;;64.70;28.58;;;;;;;-1.06;100.00;100163.13;5138093;27;20378;-80
2022/01/16 08:06:10;;;;;;;67.97;29.40;;;;;;;-1.00;100.00;100172.72;5107975;27;20420;-80
2022/01/16 08:08:56;;;;;;;76.03;34.30;;;;;;;-1.03;100.00;100168.38;5107852;27;20115;-79
2022/01/16 08:11:40;;;;;;;57.85;26.67;;;;;;;-0.85;100.00;100169.69;5108151;27;20050;-80
2022/01/16 08:14:25;;;;;;;52.10;22.50;;;;;;;-0.87;100.00;100153.34;5137358;27;20039;-80
2022/01/16 08:17:09;;;;;;;54.72;22.30;;;;;;;-0.81;100.00;100154.38;5122409;27;20039;-80
2022/01/16 08:19:53;;;;;;;55.78;24.92;;;;;;;-0.77;100.00;100161.34;5122172;27;20055;-80
2022/01/16 08:22:38;;;;;;;51.42;21.92;;;;;;;-0.76;100.00;100137.34;5108125;27;20054;-81
2022/01/16 08:25:24;;;;;;;55.13;24.10;;;;;;;-0.61;100.00;100151.44;5107632;27;20051;-80
2022/01/16 08:28:09;;;;;;;54.75;23.25;;;;;;;-0.63;100.00;100143.69;5122693;27;20039;-80
2022/01/16 08:30:54;;;;;;;52.17;25.73;;;;;;;-0.48;100.00;100145.78;5122204;27;20441;-80
2022/01/16 08:33:38;;;;;;;61.20;25.15;;;;;;;-0.45;100.00;100150.13;5107597;27;20432;-80
2022/01/16 08:36:23;;;;;;;60.38;24.15;;;;;;;-0.34;100.00;100144.41;5137558;27;20066;-81
2022/01/16 08:39:08;;;;;;;54.13;21.58;;;;;;;-0.38;100.00;100136.59;5122557;27;20043;-81
2022/01/16 08:41:52;;;;;;;59.95;25.75;;;;;;;-0.33;100.00;100140.13;5108006;27;20047;-81
2022/01/16 08:44:38;;;;;;;53.97;23.05;;;;;;;-0.33;100.00;100134.97;5121881;28;20352;-81
2022/01/16 08:47:23;;;;;;;63.45;28.08;;;;;;;-0.35;100.00;100113.50;5122369;28;20114;-81
2022/01/16 08:50:09;;;;;;;67.22;27.85;;;;;;;-0.33;100.00;100111.81;5092275;27;20111;-81
2022/01/16 08:52:54;;;;;;;60.38;28.23;;;;;;;-0.22;100.00;100122.38;5141501;27;20170;-81
2022/01/16 08:55:38;;;;;;;58.35;27.33;;;;;;;-0.13;100.00;100114.84;5126345;27;20051;-81
2022/01/16 08:58:23;;;;;;;71.95;31.58;;;;;;;-0.14;100.00;100111.41;5111713;27;20047;-81
2022/01/16 09:01:07;;;;;;;65.93;29.60;;;;;;;-0.07;100.00;100114.97;5126007;27;20043;-81
2022/01/16 09:03:52;;;;;;;69.10;28.02;;;;;;;-0.06;100.00;100115.03;5141691;27;20427;-82
2022/01/16 09:06:36;;;;;;;64.70;28.65;;;;;;;-0.06;100.00;100114.16;5126423;27;20100;-81
2022/01/16 09:09:20;;;;;;;69.68;29.83;;;;;;;0.08;100.00;100107.59;5111855;27;20138;-81
2022/01/16 09:12:06;;;;;;;62.67;26.23;;;;;;;0.17;100.00;100112.09;5111246;27;20039;-81
2022/01/16 09:14:51;;;;;;;69.22;32.83;;;;;;;0.18;100.00;100109.53;5111297;27;20359;-81
2022/01/16 09:17:36;;;;;;;77.03;33.30;;;;;;;0.29;100.00;100124.34;5126174;27;20039;-82
2022/01/16 09:20:20;;;;;;;71.55;30.30;;;;;;;0.15;100.00;100116.31;5141325;27;20312;-82
2022/01/16 09:23:05;;;;;;;69.18;31.27;;;;;;;0.20;100.00;100122.47;5111681;27;20447;-82
2022/01/16 09:25:49;;;;;;;79.82;31.30;;;;;;;0.26;100.00;100109.72;5125760;27;20095;-81
2022/01/16 09:28:35;;;;;;;76.63;32.22;;;;;;;0.10;100.00;100087.91;5140225;27;20440;-82
2022/01/16 09:31:20;;;;;;;73.78;32.97;;;;;;;0.51;100.00;100092.16;5113573;28;20432;-82
2022/01/16 09:34:05;;;;;;;63.92;30.63;;;;;;;0.67;100.00;100076.16;5118622;28;20036;-81
2022/01/16 09:36:49;;;;;;;74.05;32.17;;;;;;;0.83;100.00;100085.91;5103690;28;20119;-80
2022/01/16 09:39:33;;;;;;;65.05;29.88;;;;;;;1.14;100.00;100078.75;5104368;28;20039;-81
2022/01/16 09:42:20;;;;;;;67.20;29.92;;;;;;;1.19;100.00;100045.28;5119563;28;20504;-81
2022/01/16 09:45:08;;;;;;;75.20;32.05;;;;;;;1.42;100.00;100050.81;5087241;28;20451;-82
2022/01/16 09:47:52;;;;;;;74.70;32.75;;;;;;;1.67;100.00;100067.53;5104011;28;20040;-81
2022/01/16 09:50:37;;;;;;;67.78;33.17;;;;;;;1.76;100.00;100081.47;5089338;28;20424;-81
2022/01/16 09:53:23;;;;;;;67.35;31.40;;;;;;;1.84;100.00;100060.91;5104142;28;20479;-82
2022/01/16 09:56:07;;;;;;;69.90;30.10;;;;;;;1.90;100.00;100063.56;5119639;28;20093;-82
2022/01/16 09:58:52;;;;;;;78.75;37.83;;;;;;;1.98;100.00;100054.22;5104348;28;20374;-82
2022/01/16 10:01:36;;;;;;;109.13;44.80;;;;;;;2.11;100.00;100070.72;5089593;28;20047;-82
2022/01/16 10:04:41;;;;;;;117.38;47.28;;;;;;;2.18;100.00;100053.59;5090113;28;20044;-82
2022/01/16 10:07:26;;;;;;;71.95;34.83;;;;;;;2.19;100.00;100063.09;5104691;28;20435;-82
2022/01/16 10:10:12;;;;;;;76.95;34.30;;;;;;;2.28;100.00;100055.47;5119749;28;20040;-82
2022/01/16 10:13:06;;;;;;;96.35;42.22;;;;;;;2.29;100.00;100058.06;5090058;28;20049;-82
2022/01/16 10:15:55;;;;;;;86.63;38.20;;;;;;;2.32;100.00;100047.75;5119691;28;20036;-82
2022/01/16 10:18:41;;;;;;;78.20;35.17;;;;;;;2.48;100.00;100051.41;5104297;28;20043;-82
2022/01/16 10:21:39;;;;;;;70.93;33.40;;;;;;;2.31;100.00;100047.75;5086965;28;20039;-82
2022/01/16 10:24:30;;;;;;;77.50;35.83;;;;;;;2.40;100.00;100023.69;5119110;28;20050;-82
2022/01/16 10:27:19;;;;;;;81.43;39.92;;;;;;;2.65;100.00;100035.19;5087644;28;20051;-82
2022/01/16 10:30:08;;;;;;;77.50;40.58;;;;;;;2.72;100.00;100035.25;5103749;28;20308;-82
2022/01/16 10:32:53;;;;;;;77.55;36.00;;;;;;;2.75;100.00;100035.28;5103618;28;20043;-82
2022/01/16 10:35:39;;;;;;;82.47;39.00;;;;;;;2.68;100.00;100030.91;5103551;28;20052;-82
2022/01/16 10:38:29;;;;;;;81.43;38.30;;;;;;;2.83;100.00;100031.91;5103506;28;20040;-82
2022/01/16 10:41:14;;;;;;;82.97;38.15;;;;;;;2.87;100.00;100025.94;5118613;28;20062;-82
2022/01/16 10:43:58;;;;;;;73.70;34.95;;;;;;;2.92;100.00;100021.66;5089355;28;20039;-82
2022/01/16 10:46:42;;;;;;;75.25;36.17;;;;;;;2.90;100.00;100015.63;5089099;28;20104;-82
2022/01/16 10:49:27;;;;;;;72.10;34.78;;;;;;;3.01;100.00;100027.78;5089693;28;20036;-82
2022/01/16 10:52:12;;;;;;;73.03;33.17;;;;;;;3.07;100.00;100019.22;5103610;28;20048;-82
2022/01/16 10:55:08;;;;;;;68.55;33.58;;;;;;;3.08;100.00;100010.59;5118385;28;20044;-82
2022/01/16 10:58:03;;;;;;;108.53;50.00;;;;;;;3.13;100.00;99997.69;5103543;28;20044;-82
2022/01/16 11:00:56;;;;;;;131.93;66.78;;;;;;;3.05;100.00;100005.38;5085951;28;20048;-82
2022/01/16 11:03:41;;;;;;;105.03;51.63;;;;;;;3.21;100.00;99996.03;5118741;28;20051;-82
2022/01/16 11:06:27;;;;;;;78.32;34.53;;;;;;;3.08;100.00;99989.88;5089216;28;20304;-83
2022/01/16 11:09:27;;;;;;;74.18;38.80;;;;;;;2.87;100.00;99982.81;5089521;28;20055;-83
2022/01/16 11:12:11;;;;;;;138.45;83.78;;;;;;;2.87;100.00;99974.19;5117735;28;20047;-83
2022/01/16 11:14:56;;;;;;;98.05;60.42;;;;;;;2.89;100.00;99954.34;5118509;28;20040;-82
2022/01/16 11:17:40;;;;;;;88.28;50.63;;;;;;;2.97;100.00;99966.50;5089078;28;20044;-83
2022/01/16 11:20:29;;;;;;;88.07;52.90;;;;;;;2.98;100.00;99965.66;5100150;28;20085;-82
2022/01/16 11:23:16;;;;;;;100.97;62.72;;;;;;;2.97;100.00;99957.88;5102955;28;20039;-83
2022/01/16 11:26:06;;;;;;;84.30;50.40;;;;;;;2.99;100.00;99949.28;5103244;28;20040;-83
2022/01/16 11:28:51;;;;;;;76.82;41.08;;;;;;;3.07;100.00;99946.75;5117789;28;20355;-85
2022/01/16 11:31:36;;;;;;;93.20;51.08;;;;;;;3.12;100.00;99946.78;5117673;28;20039;-84
2022/01/16 11:34:21;;;;;;;96.75;50.63;;;;;;;3.20;100.00;99932.16;5103163;28;20424;-82
2022/01/16 11:37:07;;;;;;;107.80;60.35;;;;;;;3.26;100.00;99939.97;5088328;28;20059;-82
2022/01/16 11:39:51;;;;;;;90.30;46.25;;;;;;;3.14;100.00;99933.00;5102402;28;20050;-83
2022/01/16 11:42:37;;;;;;;74.93;41.08;;;;;;;3.10;100.00;99923.47;5118003;28;20050;-83
2022/01/16 11:45:21;;;;;;;68.40;33.80;;;;;;;3.13;100.00;99918.31;5088481;28;20040;-82
2022/01/16 11:48:06;;;;;;;58.53;31.70;;;;;;;3.22;100.00;99933.91;5088366;28;20039;-82
2022/01/16 11:50:50;;;;;;;62.55;29.17;;;;;;;3.10;100.00;99910.53;5102737;28;20043;-83
2022/01/16 11:54:04;;;;;;;65.40;30.25;;;;;;;3.19;100.00;99922.69;5095906;28;20063;-83
2022/01/16 11:56:51;;;;;;;60.60;31.00;;;;;;;3.19;100.00;99926.13;5081792;28;20052;-83
2022/01/16 11:59:40;;;;;;;63.13;29.65;;;;;;;3.10;100.00;99922.63;5081893;28;20348;-83
2022/01/16 12:02:26;;;;;;;59.55;27.95;;;;;;;3.02;100.00;99931.19;5081683;28;20063;-82
2022/01/16 12:05:20;;;;;;;64.88;29.50;;;;;;;3.06;100.00;99923.47;5095899;28;20036;-83
2022/01/16 12:08:09;;;;;;;59.45;30.75;;;;;;;3.12;100.00;99926.06;5096555;28;20040;-82
2022/01/16 12:10:55;;;;;;;84.05;37.25;;;;;;;3.13;100.00;99923.50;5081521;28;20341;-82
2022/01/16 12:13:42;;;;;;;116.97;49.45;;;;;;;3.14;100.00;99930.41;5096299;28;20474;-83
2022/01/16 12:16:42;;;;;;;104.50;48.50;;;;;;;3.13;100.00;99926.09;5081536;28;20348;-83
2022/01/16 12:19:45;;;;;;;89.10;40.38;;;;;;;3.19;100.00;99910.59;5095822;28;20050;-82
2022/01/16 12:22:48;;;;;;;74.97;34.53;;;;;;;3.04;100.00;99898.41;5096377;28;20040;-82
2022/01/16 12:25:52;;;;;;;73.20;33.17;;;;;;;2.98;100.00;99893.19;5095779;28;20064;-82
2022/01/16 12:28:41;;;;;;;72.68;33.65;;;;;;;2.95;100.00;99882.81;5096799;28;20101;-82
2022/01/16 12:31:33;;;;;;;65.18;30.55;;;;;;;2.92;100.00;99874.16;5081211;28;20187;-82
2022/01/16 12:34:43;;;;;;;94.72;45.78;;;;;;;2.99;100.00;99870.75;5096252;28;20040;-82
2022/01/16 12:37:48;;;;;;;96.72;45.22;;;;;;;3.00;100.00;99878.56;5081069;28;20048;-82
2022/01/16 12:40:32;;;;;;;63.13;32.45;;;;;;;2.93;100.00;99845.75;5081017;28;20055;-82
2022/01/16 12:44:00;;;;;;;90.57;41.03;;;;;;;3.00;100.00;99854.41;5094884;28;20068;-81
2022/01/16 12:46:47;;;;;;;77.53;38.35;;;;;;;3.13;100.00;99861.38;5093205;28;20067;-82
2022/01/16 12:49:31;;;;;;;68.57;32.05;;;;;;;2.99;100.00;99853.53;5079341;28;20085;-83
2022/01/16 12:52:15;;;;;;;61.72;31.55;;;;;;;3.04;100.00;99843.22;5096710;28;20055;-82
2022/01/16 12:55:06;;;;;;;67.22;33.92;;;;;;;3.17;100.00;99845.00;5085004;28;20059;-82
2022/01/16 12:57:51;;;;;;;70.70;32.47;;;;;;;3.10;100.00;99844.97;5099498;28;20128;-83
2022/01/16 13:00:35;;;;;;;67.90;32.58;;;;;;;3.08;100.00;99825.97;5082453;28;20055;-83
2022/01/16 13:03:28;;;;;;;68.50;31.60;;;;;;;3.17;100.00;99845.00;5085173;28;20039;-81
2022/01/16 13:06:34;;;;;;;73.28;34.85;;;;;;;3.13;100.00;99819.97;5099469;28;20071;-83
2022/01/16 13:09:18;;;;;;;73.47;33.90;;;;;;;3.21;100.00;99828.63;5085215;28;20070;-82
2022/01/16 13:12:04;;;;;;;66.60;31.13;;;;;;;3.25;100.00;99819.16;5099419;28;20133;-82
2022/01/16 13:14:49;;;;;;;94.10;40.15;;;;;;;3.22;100.00;99820.03;5084441;28;20051;-82
2022/01/16 13:17:33;;;;;;;113.93;47.25;;;;;;;3.17;100.00;99810.50;5101456;28;20467;-83